createdAt,value
2023-03-16T00:00:09.757Z,9.63
2023-03-16T00:02:36.852Z,10.75
2023-03-16T00:05:04.265Z,10.40
2023-03-16T00:07:31.413Z,10.02
2023-03-16T00:09:58.546Z,10.85
2023-03-16T00:12:26.473Z,10.07
2023-03-16T00:14:54.467Z,10.88
2023-03-16T00:17:21.905Z,10.75
2023-03-16T00:19:55.506Z,12.02
2023-03-16T00:22:28.709Z,11.00
2023-03-16T00:24:56.430Z,11.18
2023-03-16T00:27:25.993Z,11.05
2023-03-16T00:29:57.195Z,10.07
2023-03-16T00:32:27.414Z,10.73
2023-03-16T00:37:23.895Z,11.25
2023-03-16T00:39:52.578Z,10.95
2023-03-16T00:42:20.522Z,10.13
2023-03-16T00:44:47.896Z,10.95
2023-03-16T00:47:15.416Z,11.18
2023-03-16T00:49:44.256Z,10.73
2023-03-16T00:52:16.340Z,10.15
2023-03-16T00:54:45.272Z,9.77
2023-03-16T00:57:14.991Z,9.82
2023-03-16T00:59:42.601Z,8.93
2023-03-16T01:02:11.794Z,10.05
2023-03-16T01:04:40.300Z,9.07
2023-03-16T01:07:12.778Z,9.35
2023-03-16T01:09:41.213Z,7.90
2023-03-16T01:12:15.171Z,8.50
2023-03-16T01:14:46.036Z,8.52
2023-03-16T01:17:14.174Z,9.55
2023-03-16T01:19:42.101Z,9.43
2023-03-16T01:22:11.897Z,9.38
2023-03-16T01:24:40.132Z,9.07
2023-03-16T01:27:07.881Z,9.93
2023-03-16T01:29:35.424Z,10.15
2023-03-16T01:32:02.781Z,8.90
2023-03-16T01:34:30.297Z,8.30
2023-03-16T01:36:57.696Z,7.88
2023-03-16T01:39:28.138Z,9.27
2023-03-16T01:41:55.174Z,8.25
2023-03-16T01:44:30.709Z,7.95
2023-03-16T01:47:03.617Z,8.48
2023-03-16T01:49:34.263Z,8.35
2023-03-16T01:52:10.326Z,8.13
2023-03-16T01:54:46.316Z,8.20
2023-03-16T01:57:20.239Z,8.85
2023-03-16T01:59:53.917Z,8.27
2023-03-16T02:02:27.377Z,7.38
2023-03-16T02:05:27.153Z,8.77
2023-03-16T02:07:58.906Z,7.95
2023-03-16T02:10:29.385Z,8.82
2023-03-16T02:12:58.213Z,8.07
2023-03-16T02:15:25.909Z,8.57
2023-03-16T02:17:53.193Z,9.00
2023-03-16T02:20:44.301Z,8.10
2023-03-16T02:25:57.818Z,8.05
2023-03-16T02:28:42.841Z,7.63
2023-03-16T02:31:10.529Z,8.45
2023-03-16T02:33:37.798Z,8.15
2023-03-16T02:36:07.352Z,8.48
2023-03-16T02:38:34.511Z,8.18
2023-03-16T02:41:19.296Z,8.05
2023-03-16T02:44:14.818Z,9.50
2023-03-16T02:46:44.142Z,8.32
2023-03-16T02:49:27.861Z,7.78
2023-03-16T02:51:55.106Z,7.57
2023-03-16T02:54:22.238Z,8.00
2023-03-16T02:56:49.388Z,8.07
2023-03-16T02:59:16.773Z,8.77
2023-03-16T03:01:43.886Z,8.25
2023-03-16T03:04:11.127Z,7.95
2023-03-16T03:06:38.355Z,8.25
2023-03-16T03:09:06.388Z,9.15
2023-03-16T03:11:33.702Z,7.75
2023-03-16T03:14:00.743Z,7.78
2023-03-16T03:16:28.448Z,8.10
2023-03-16T03:18:56.978Z,6.93
2023-03-16T03:21:24.389Z,7.45
2023-03-16T03:23:51.947Z,7.53
2023-03-16T03:26:20.050Z,7.90
2023-03-16T03:28:48.321Z,7.40
2023-03-16T03:31:22.158Z,8.00
2023-03-16T03:33:51.137Z,7.32
2023-03-16T03:36:18.297Z,8.43
2023-03-16T03:38:46.456Z,6.78
2023-03-16T03:41:13.550Z,6.60
2023-03-16T03:43:41.231Z,6.13
2023-03-16T03:46:13.806Z,6.93
2023-03-16T03:48:41.298Z,7.55
2023-03-16T03:51:08.344Z,7.00
2023-03-16T03:53:47.129Z,6.95
2023-03-16T03:56:14.333Z,6.60
2023-03-16T03:58:41.569Z,7.15
2023-03-16T04:01:09.698Z,7.13
2023-03-16T04:03:36.926Z,7.00
2023-03-16T04:06:08.207Z,6.47
2023-03-16T04:08:36.139Z,6.15
2023-03-16T04:11:04.585Z,7.05
2023-03-16T04:13:31.715Z,6.93
2023-03-16T04:16:05.245Z,6.88
2023-03-16T04:18:39.579Z,6.90
2023-03-16T04:21:14.175Z,7.15
2023-03-16T04:23:42.728Z,6.70
2023-03-16T04:26:10.878Z,7.40
2023-03-16T04:28:38.146Z,6.85
2023-03-16T04:31:07.600Z,6.50
2023-03-16T04:33:40.298Z,6.25
2023-03-16T04:36:07.728Z,7.43
2023-03-16T04:38:37.047Z,6.85
2023-03-16T04:41:05.901Z,6.93
2023-03-16T04:43:40.655Z,7.35
2023-03-16T04:46:14.891Z,6.13
2023-03-16T04:48:42.078Z,7.07
2023-03-16T04:51:09.511Z,6.07
2023-03-16T04:53:40.482Z,6.18
2023-03-16T04:56:19.903Z,6.95
2023-03-16T04:58:53.837Z,7.10
2023-03-16T05:01:23.967Z,5.97
2023-03-16T05:03:54.787Z,6.18
2023-03-16T05:06:22.541Z,7.18
2023-03-16T05:08:49.904Z,5.95
2023-03-16T05:11:17.416Z,5.60
2023-03-16T05:13:54.871Z,5.78
2023-03-16T05:16:22.519Z,5.78
2023-03-16T05:18:50.577Z,6.05
2023-03-16T05:21:17.714Z,5.25
2023-03-16T05:23:57.858Z,5.78
2023-03-16T05:26:27.899Z,5.50
2023-03-16T05:28:56.098Z,5.22
2023-03-16T05:31:29.067Z,5.38
2023-03-16T05:33:59.897Z,5.00
2023-03-16T05:36:27.196Z,5.10
2023-03-16T05:38:59.592Z,6.35
2023-03-16T05:41:32.240Z,5.18
2023-03-16T05:44:04.730Z,5.85
2023-03-16T05:46:52.134Z,5.15
2023-03-16T05:49:19.385Z,5.80
2023-03-16T05:51:46.672Z,5.20
2023-03-16T05:54:14.158Z,4.78
2023-03-16T05:56:45.113Z,4.82
2023-03-16T05:59:12.156Z,5.22
2023-03-16T06:01:40.415Z,4.70
2023-03-16T06:04:08.183Z,4.50
2023-03-16T06:06:39.904Z,4.75
2023-03-16T06:09:14.270Z,4.80
2023-03-16T06:11:42.267Z,4.60
2023-03-16T06:14:09.563Z,4.35
2023-03-16T06:16:37.213Z,4.95
2023-03-16T06:19:04.381Z,4.20
2023-03-16T06:21:33.351Z,4.57
2023-03-16T06:24:09.454Z,4.35
2023-03-16T06:26:37.806Z,4.20
2023-03-16T06:29:08.005Z,3.45
2023-03-16T06:31:37.433Z,3.90
2023-03-16T06:34:05.313Z,3.38
2023-03-16T06:36:32.487Z,3.22
2023-03-16T06:39:01.719Z,4.30
2023-03-16T06:41:34.961Z,3.55
2023-03-16T06:44:03.068Z,4.10
2023-03-16T06:46:30.492Z,3.13
2023-03-16T06:49:01.151Z,3.63
2023-03-16T06:51:28.546Z,3.50
2023-03-16T06:53:55.712Z,3.60
2023-03-16T06:56:23.378Z,3.38
2023-03-16T06:58:50.516Z,3.50
2023-03-16T07:01:17.970Z,3.42
2023-03-16T07:03:45.180Z,3.70
2023-03-16T07:06:20.705Z,3.90
2023-03-16T07:08:47.861Z,3.92
2023-03-16T07:11:15.383Z,4.35
2023-03-16T07:13:42.590Z,3.50
2023-03-16T07:16:10.547Z,3.83
2023-03-16T07:18:40.087Z,3.35
2023-03-16T07:21:10.984Z,3.80
2023-03-16T07:23:38.961Z,3.33
2023-03-16T07:26:08.458Z,2.95
2023-03-16T07:28:39.803Z,3.08
2023-03-16T07:31:07.500Z,3.30
2023-03-16T07:33:39.303Z,3.28
2023-03-16T07:36:10.973Z,3.35
2023-03-16T07:38:44.168Z,2.90
2023-03-16T07:41:12.726Z,3.38
2023-03-16T07:43:41.076Z,2.92
2023-03-16T07:46:13.962Z,3.10
2023-03-16T07:48:45.181Z,3.25
2023-03-16T07:51:14.074Z,3.70
2023-03-16T07:53:43.424Z,3.90
2023-03-16T07:56:47.428Z,3.83
2023-03-16T07:59:24.063Z,4.47
2023-03-16T08:01:51.312Z,3.63
2023-03-16T08:04:18.501Z,4.82
2023-03-16T08:06:46.216Z,4.20
2023-03-16T08:09:14.619Z,4.60
2023-03-16T08:11:42.112Z,3.25
2023-03-16T08:14:09.345Z,3.75
2023-03-16T08:16:58.423Z,3.58
2023-03-16T08:19:27.700Z,3.35
2023-03-16T08:22:01.775Z,3.83
2023-03-16T08:24:36.143Z,4.00
2023-03-16T08:27:04.910Z,3.85
2023-03-16T08:29:34.745Z,3.40
2023-03-16T08:32:03.906Z,3.83
2023-03-16T08:34:40.169Z,4.05
2023-03-16T08:37:10.015Z,3.33
2023-03-16T08:39:37.268Z,4.20
2023-03-16T08:42:09.208Z,3.45
2023-03-16T08:44:44.311Z,3.47
2023-03-16T08:47:12.331Z,3.45
2023-03-16T08:49:42.730Z,3.50
2023-03-16T08:52:13.554Z,4.07
2023-03-16T08:54:49.739Z,3.50
2023-03-16T08:57:23.716Z,4.93
2023-03-16T08:59:51.598Z,4.13
2023-03-16T09:02:18.903Z,4.03
2023-03-16T09:04:46.285Z,3.58
2023-03-16T09:07:13.810Z,3.63
2023-03-16T09:09:41.045Z,3.22
2023-03-16T09:12:08.687Z,3.50
2023-03-16T09:14:37.861Z,3.05
2023-03-16T09:17:05.434Z,3.50
2023-03-16T09:19:50.095Z,3.33
2023-03-16T09:22:18.596Z,3.17
2023-03-16T09:24:45.903Z,3.33
2023-03-16T09:27:13.360Z,3.08
2023-03-16T09:29:41.341Z,2.70
2023-03-16T09:32:09.817Z,3.42
2023-03-16T09:34:37.020Z,3.10
2023-03-16T09:37:04.624Z,3.70
2023-03-16T09:39:32.271Z,3.30
2023-03-16T09:42:13.312Z,3.15
2023-03-16T09:44:52.613Z,2.78
2023-03-16T09:47:27.563Z,3.40
2023-03-16T09:49:58.784Z,2.47
2023-03-16T09:52:35.504Z,2.72
2023-03-16T09:55:36.876Z,2.80
2023-03-16T09:58:10.985Z,2.05
2023-03-16T10:00:47.911Z,2.03
2023-03-16T10:03:34.637Z,2.00
2023-03-16T10:06:04.311Z,1.88
2023-03-16T10:08:39.441Z,1.65
2023-03-16T10:11:33.395Z,1.65
2023-03-16T10:14:33.237Z,1.90
2023-03-16T10:17:35.745Z,1.63
2023-03-16T10:20:09.230Z,2.03
2023-03-16T10:22:42.619Z,2.03
2023-03-16T10:25:27.990Z,1.80
2023-03-16T10:27:56.852Z,2.17
2023-03-16T10:30:33.649Z,2.30
2023-03-16T10:33:11.935Z,2.50
2023-03-16T10:36:04.013Z,2.33
2023-03-16T10:38:40.283Z,2.00
2023-03-16T10:41:29.526Z,2.22
2023-03-16T10:44:08.703Z,2.40
2023-03-16T10:46:40.906Z,3.97
2023-03-16T10:49:42.359Z,2.63
2023-03-16T10:52:19.832Z,2.17
2023-03-16T10:55:11.659Z,1.90
2023-03-16T10:57:43.060Z,1.75
2023-03-16T11:00:41.836Z,2.00
2023-03-16T11:03:26.222Z,2.10
2023-03-16T11:06:05.228Z,2.15
2023-03-16T11:08:35.790Z,1.85
2023-03-16T11:11:12.133Z,1.70
2023-03-16T11:13:45.473Z,1.90
2023-03-16T11:16:32.406Z,1.67
2023-03-16T11:19:22.525Z,1.98
2023-03-16T11:21:57.345Z,1.80
2023-03-16T11:25:02.383Z,1.77
2023-03-16T11:28:01.549Z,1.50
2023-03-16T11:30:35.523Z,1.98
2023-03-16T11:33:04.329Z,1.60
2023-03-16T11:35:59.332Z,1.88
2023-03-16T11:39:04.902Z,1.92
2023-03-16T11:42:04.202Z,1.40
2023-03-16T11:45:12.751Z,1.75
2023-03-16T11:48:09.849Z,2.03
2023-03-16T11:51:05.586Z,1.50
2023-03-16T11:53:38.637Z,1.50
2023-03-16T11:56:15.712Z,2.20
2023-03-16T11:59:22.045Z,2.20
2023-03-16T12:02:26.447Z,1.65
2023-03-16T12:05:11.873Z,1.90
2023-03-16T12:08:04.559Z,2.03
2023-03-16T12:10:57.876Z,1.48
2023-03-16T12:13:57.306Z,1.80
2023-03-16T12:16:48.677Z,2.90
2023-03-16T12:19:25.066Z,3.13
2023-03-16T12:22:17.451Z,2.10
2023-03-16T12:24:48.256Z,1.65
2023-03-16T12:27:22.815Z,1.30
2023-03-16T12:30:03.938Z,1.73
2023-03-16T12:32:39.184Z,1.70
2023-03-16T12:35:18.255Z,1.50
2023-03-16T12:37:56.908Z,1.60
2023-03-16T12:40:34.058Z,1.70
2023-03-16T12:43:19.166Z,2.70
2023-03-16T12:45:58.750Z,1.83
2023-03-16T12:48:32.716Z,1.55
2023-03-16T12:51:05.353Z,1.58
2023-03-16T12:53:52.054Z,2.45
2023-03-16T12:56:30.379Z,1.90
2023-03-16T12:59:00.449Z,1.80
2023-03-16T13:01:31.415Z,2.00
2023-03-16T13:04:24.129Z,2.00
2023-03-16T13:07:02.054Z,1.83
2023-03-16T13:09:32.947Z,2.25
2023-03-16T13:12:05.215Z,2.17
2023-03-16T13:14:44.462Z,1.70
2023-03-16T13:17:17.349Z,1.10
2023-03-16T13:19:47.987Z,1.95
2023-03-16T13:22:31.396Z,1.67
2023-03-16T13:25:25.742Z,1.52
2023-03-16T13:27:56.178Z,1.52
2023-03-16T13:30:29.947Z,1.60
2023-03-16T13:33:04.546Z,1.95
2023-03-16T13:35:32.284Z,1.90
2023-03-16T13:38:06.823Z,1.77
2023-03-16T13:40:35.106Z,1.80
2023-03-16T13:43:02.321Z,1.65
2023-03-16T13:45:34.008Z,1.23
2023-03-16T13:48:05.681Z,1.38
2023-03-16T13:50:34.236Z,1.45
2023-03-16T13:53:04.986Z,1.17
2023-03-16T13:55:35.021Z,1.00
2023-03-16T13:58:04.247Z,1.17
2023-03-16T14:00:35.128Z,1.33
2023-03-16T14:03:14.665Z,1.13
2023-03-16T14:05:41.743Z,1.10
2023-03-16T14:08:22.114Z,0.90
2023-03-16T14:13:25.865Z,1.90
2023-03-16T14:16:00.323Z,0.80
2023-03-16T14:18:37.771Z,1.40
2023-03-16T14:21:09.939Z,1.25
2023-03-16T14:23:46.731Z,0.80
2023-03-16T14:26:27.944Z,1.23
2023-03-16T14:28:57.527Z,1.95
2023-03-16T14:31:38.448Z,1.10
2023-03-16T14:34:20.262Z,2.20
2023-03-16T14:36:47.624Z,2.20
2023-03-16T14:39:19.771Z,1.20
2023-03-16T14:41:52.520Z,2.55
2023-03-16T14:44:24.368Z,1.38
2023-03-16T14:46:54.472Z,1.10
2023-03-16T14:49:36.629Z,1.27
2023-03-16T14:52:15.918Z,1.75
2023-03-16T14:54:43.100Z,1.00
2023-03-16T14:57:17.106Z,1.25
2023-03-16T14:59:44.304Z,1.17
2023-03-16T15:02:25.533Z,3.03
2023-03-16T15:04:53.036Z,1.55
2023-03-16T15:07:27.301Z,1.67
2023-03-16T15:09:56.742Z,2.60
2023-03-16T15:12:26.304Z,3.60
2023-03-16T15:15:12.507Z,1.80
2023-03-16T15:17:39.663Z,3.00
2023-03-16T15:20:07.749Z,2.05
2023-03-16T15:22:38.590Z,1.42
2023-03-16T15:25:24.904Z,1.50
2023-03-16T15:27:53.193Z,1.20
2023-03-16T15:30:26.569Z,1.73
2023-03-16T15:32:53.888Z,2.50
2023-03-16T15:35:21.504Z,1.60
2023-03-16T15:37:49.343Z,2.10
2023-03-16T15:40:28.737Z,1.50
2023-03-16T15:42:56.307Z,1.60
2023-03-16T15:45:23.923Z,1.40
2023-03-16T15:47:52.561Z,1.50
2023-03-16T15:50:21.963Z,1.40
2023-03-16T15:53:00.169Z,1.43
2023-03-16T15:55:42.711Z,1.50
2023-03-16T15:58:20.502Z,1.88
2023-03-16T16:00:48.970Z,1.67
2023-03-16T16:03:16.216Z,1.15
2023-03-16T16:05:43.415Z,1.30
2023-03-16T16:08:10.657Z,1.50
2023-03-16T16:10:39.758Z,1.40
2023-03-16T16:13:11.941Z,2.03
2023-03-16T16:15:39.818Z,1.35
2023-03-16T16:18:35.246Z,2.03
2023-03-16T16:21:05.446Z,2.10
2023-03-16T16:26:04.017Z,1.90
2023-03-16T16:28:33.142Z,1.83
2023-03-16T16:31:03.940Z,1.80
2023-03-16T16:33:33.955Z,1.50
2023-03-16T16:36:04.725Z,1.58
2023-03-16T16:38:32.625Z,1.55
2023-03-16T16:41:02.220Z,1.85
2023-03-16T16:43:37.761Z,1.88
2023-03-16T16:46:24.166Z,1.58
2023-03-16T16:48:58.054Z,2.08
2023-03-16T16:51:28.012Z,1.80
2023-03-16T16:53:57.871Z,2.00
2023-03-16T16:56:33.900Z,1.70
2023-03-16T16:59:12.891Z,2.88
2023-03-16T17:01:40.309Z,4.38
2023-03-16T17:04:17.517Z,4.40
2023-03-16T17:06:46.081Z,4.65
2023-03-16T17:09:14.583Z,3.70
2023-03-16T17:11:44.155Z,3.20
2023-03-16T17:14:17.219Z,2.38
2023-03-16T17:16:47.348Z,2.22
2023-03-16T17:19:20.343Z,2.60
2023-03-16T17:21:49.020Z,2.58
2023-03-16T17:24:17.085Z,2.33
2023-03-16T17:27:04.828Z,2.75
2023-03-16T17:29:33.988Z,3.35
2023-03-16T17:32:17.147Z,3.03
2023-03-16T17:34:44.518Z,3.90
2023-03-16T17:37:16.683Z,3.38
2023-03-16T17:39:44.015Z,3.20
2023-03-16T17:42:20.584Z,2.83
2023-03-16T17:44:51.025Z,3.28
2023-03-16T17:47:23.764Z,2.55
2023-03-16T17:49:52.127Z,2.90
2023-03-16T17:52:23.768Z,10.30
2023-03-16T17:54:53.575Z,15.85
2023-03-16T17:57:29.776Z,17.63
2023-03-16T17:59:57.902Z,9.05
2023-03-16T18:02:39.885Z,8.52
2023-03-16T18:05:18.431Z,7.68
2023-03-16T18:07:45.658Z,10.80
2023-03-16T18:10:18.166Z,12.40
2023-03-16T18:12:48.388Z,10.75
2023-03-16T18:17:44.931Z,5.78
2023-03-16T18:20:34.511Z,5.00
2023-03-16T18:23:10.643Z,5.57
2023-03-16T18:25:42.382Z,5.28
2023-03-16T18:28:11.420Z,5.28
2023-03-16T18:30:39.988Z,6.38
2023-03-16T18:33:17.395Z,7.10
2023-03-16T18:35:44.823Z,7.35
2023-03-16T18:38:32.503Z,6.78
2023-03-16T18:41:02.309Z,7.90
2023-03-16T18:43:29.990Z,9.65
2023-03-16T18:45:57.382Z,9.55
2023-03-16T18:48:33.590Z,9.98
2023-03-16T18:51:01.332Z,9.35
2023-03-16T18:53:29.188Z,8.30
2023-03-16T18:55:57.617Z,8.40
2023-03-16T18:58:25.579Z,8.55
2023-03-16T19:01:00.774Z,9.13
2023-03-16T19:03:43.702Z,9.50
2023-03-16T19:06:41.771Z,9.15
2023-03-16T19:09:23.000Z,8.35
2023-03-16T19:11:50.898Z,8.50
2023-03-16T19:14:24.685Z,8.40
2023-03-16T19:16:52.471Z,7.97
2023-03-16T19:19:22.116Z,7.68
2023-03-16T19:21:52.942Z,7.32
2023-03-16T19:24:50.954Z,8.10
2023-03-16T19:27:31.670Z,8.73
2023-03-16T19:29:59.098Z,7.07
2023-03-16T19:32:26.638Z,6.95
2023-03-16T19:34:54.002Z,6.95
2023-03-16T19:37:23.975Z,6.82
2023-03-16T19:39:51.466Z,6.32
2023-03-16T19:42:28.402Z,6.03
2023-03-16T19:44:55.584Z,7.93
2023-03-16T19:47:30.996Z,7.63
2023-03-16T19:49:59.349Z,9.02
2023-03-16T19:52:28.439Z,8.27
2023-03-16T19:54:55.657Z,9.53
2023-03-16T19:57:23.251Z,8.90
2023-03-16T19:59:57.320Z,8.77
2023-03-16T20:02:36.582Z,8.88
2023-03-16T20:05:05.226Z,7.68
2023-03-16T20:07:38.236Z,7.88
2023-03-16T20:10:06.780Z,7.97
2023-03-16T20:12:37.227Z,7.55
2023-03-16T20:15:04.804Z,7.25
2023-03-16T20:17:33.196Z,6.78
2023-03-16T20:20:00.340Z,6.82
2023-03-16T20:22:28.865Z,6.88
2023-03-16T20:24:58.263Z,7.18
2023-03-16T20:27:27.958Z,7.30
2023-03-16T20:29:56.060Z,6.70
2023-03-16T20:32:26.217Z,6.20
2023-03-16T20:37:26.475Z,6.38
2023-03-16T20:39:56.421Z,6.45
2023-03-16T20:42:31.263Z,6.63
2023-03-16T20:44:59.493Z,6.60
2023-03-16T20:47:27.406Z,7.10
2023-03-16T20:49:57.826Z,6.05
2023-03-16T20:52:30.852Z,6.70
2023-03-16T20:54:58.491Z,7.25
2023-03-16T20:57:29.306Z,6.45
2023-03-16T20:59:56.703Z,6.75
2023-03-16T21:02:41.786Z,6.20
2023-03-16T21:05:12.859Z,6.40
2023-03-16T21:07:40.102Z,6.68
2023-03-16T21:10:07.786Z,6.18
2023-03-16T21:12:39.586Z,7.38
2023-03-16T21:15:25.757Z,6.43
2023-03-16T21:18:00.185Z,6.15
2023-03-16T21:20:30.987Z,5.63
2023-03-16T21:22:58.910Z,7.32
2023-03-16T21:25:32.952Z,7.47
2023-03-16T21:28:03.345Z,7.53
2023-03-16T21:30:40.201Z,7.22
2023-03-16T21:33:19.157Z,7.35
2023-03-16T21:35:46.680Z,6.85
2023-03-16T21:38:19.548Z,8.38
2023-03-16T21:40:48.077Z,6.80
2023-03-16T21:43:15.814Z,7.30
2023-03-16T21:45:43.916Z,6.28
2023-03-16T21:48:28.269Z,6.85
2023-03-16T21:50:56.043Z,8.68
2023-03-16T21:53:28.869Z,11.18
2023-03-16T21:55:57.423Z,11.77
2023-03-16T21:58:25.095Z,10.65
2023-03-16T22:00:54.838Z,5.90
2023-03-16T22:03:24.971Z,6.15
2023-03-16T22:08:29.413Z,7.55
2023-03-16T22:10:57.372Z,7.35
2023-03-16T22:13:24.669Z,7.30
2023-03-16T22:15:53.413Z,8.63
2023-03-16T22:18:40.753Z,8.95
2023-03-16T22:21:42.130Z,11.00
2023-03-16T22:24:22.349Z,11.15
2023-03-16T22:29:28.549Z,12.60
2023-03-16T22:31:59.645Z,11.60
2023-03-16T22:34:39.597Z,11.80
2023-03-16T22:37:08.185Z,12.80
2023-03-16T22:39:38.605Z,13.05
2023-03-16T22:42:38.936Z,12.75
2023-03-16T22:45:23.166Z,12.63
2023-03-16T22:47:50.935Z,12.13
2023-03-16T22:50:19.889Z,12.00
2023-03-16T22:52:50.223Z,12.52
2023-03-16T22:55:23.791Z,10.93
2023-03-16T22:57:55.738Z,12.18
2023-03-16T23:00:22.986Z,12.98
2023-03-16T23:02:50.408Z,12.50
2023-03-16T23:05:21.979Z,12.30
2023-03-16T23:07:48.933Z,13.18
2023-03-16T23:10:21.409Z,11.95
2023-03-16T23:12:49.525Z,11.85
2023-03-16T23:15:28.799Z,13.40
2023-03-16T23:17:56.619Z,12.73
2023-03-16T23:20:25.286Z,12.57
2023-03-16T23:22:53.343Z,11.82
2023-03-16T23:25:22.137Z,11.88
2023-03-16T23:27:51.735Z,12.48
2023-03-16T23:30:25.924Z,11.38
2023-03-16T23:32:54.770Z,11.18
2023-03-16T23:35:27.725Z,11.55
2023-03-16T23:37:55.924Z,11.15
2023-03-16T23:40:26.230Z,11.52
2023-03-16T23:42:56.108Z,12.43
2023-03-16T23:45:28.427Z,11.63
2023-03-16T23:47:57.725Z,12.57
2023-03-16T23:50:29.159Z,13.60
2023-03-16T23:52:56.433Z,12.15
2023-03-16T23:55:24.292Z,13.93
2023-03-16T23:57:51.280Z,14.70
